Clark, Minnesota
Current Conditions -  °F | °C
As of 10:05 PM on Saturday 25 Oct 2014 (Local Time) from KHZX Reporting Station
Clear Clear  
Wind Chill: 46°   Ceiling: Unl
Heat Index: 46°   Visibility: 10mi
Dew Point: 27°   Wind: 3mph
Humidity: 46%   Direction: 250°WSW
Pressure: 30.01"   Gusts: NA
Location:  46.6404°N, 93.1222°W
Report Text: KHZX 260305Z AUTO 25003KT 10SM CLR 08/M03 A3001 RMK AO2
Loading
Personal Weather Stations






























Interactive Weather Map
Tropical Storm Tracking
New forecast layout! Learn more

10-Day Weather Forecast

Advertisements
Track Severe Weather on mobile